Time;durP1;ratioP1;P1;durP2;ratioP2;P2;SDS_P1;SDS_P2;PMS_P1;PMS_P2;Temp;Humidity;BMP_temperature;BMP_pressure;BME280_temperature;BME280_humidity;BME280_pressure;Samples;Min_cycle;Max_cycle;Signal;HPM_P1;HPM_P2
2023/08/14 00:01:27;;;;;;;7.20;2.10;;;;;;;;;;5014427;28;20976;-70
2023/08/14 00:03:54;;;;;;;7.80;2.33;;;;;;;;;;4998504;28;20044;-72
2023/08/14 00:06:20;;;;;;;6.00;1.90;;;;;;;;;;5014816;28;20025;-71
2023/08/14 00:08:46;;;;;;;8.07;2.38;;;;;;;;;;5018655;28;20049;-71
2023/08/14 00:11:12;;;;;;;8.05;2.20;;;;;;;;;;5015992;28;20029;-72
2023/08/14 00:13:55;;;;;;;7.43;2.20;;;;;;;;;;5018326;28;20021;-71
2023/08/14 00:16:22;;;;;;;8.02;2.22;;;;;;;;;;4998936;28;20036;-71
2023/08/14 00:18:48;;;;;;;6.40;1.95;;;;;;;;;;5017128;28;20079;-71
2023/08/14 00:21:15;;;;;;;8.88;2.20;;;;;;;;;;5013482;28;20102;-71
2023/08/14 00:23:41;;;;;;;9.48;2.28;;;;;;;;;;5015910;28;20029;-71
2023/08/14 00:26:08;;;;;;;6.63;2.03;;;;;;;;;;5015612;28;20032;-71
2023/08/14 00:28:34;;;;;;;7.95;2.20;;;;;;;;;;5018143;28;20037;-71
2023/08/14 00:31:01;;;;;;;8.93;2.28;;;;;;;;;;5014812;28;20037;-71
2023/08/14 00:33:27;;;;;;;7.05;1.80;;;;;;;;;;5014227;28;20041;-72
2023/08/14 00:35:53;;;;;;;5.85;1.90;;;;;;;;;;5021135;28;20166;-72
2023/08/14 00:38:19;;;;;;;8.18;2.35;;;;;;;;;;5017055;28;20028;-71
2023/08/14 00:40:45;;;;;;;7.50;2.05;;;;;;;;;;5000884;28;20554;-71
2023/08/14 00:43:11;;;;;;;7.22;2.17;;;;;;;;;;5002380;28;20057;-71
2023/08/14 00:45:37;;;;;;;7.32;2.28;;;;;;;;;;5017805;28;20533;-71
2023/08/14 00:48:04;;;;;;;7.40;2.10;;;;;;;;;;5014452;28;20202;-72
2023/08/14 00:50:30;;;;;;;6.95;2.10;;;;;;;;;;5003381;28;20045;-71
2023/08/14 00:52:57;;;;;;;6.50;2.05;;;;;;;;;;5018791;28;20421;-71
2023/08/14 00:55:27;;;;;;;9.52;1.98;;;;;;;;;;5022396;28;20080;-71
2023/08/14 00:57:54;;;;;;;6.25;2.00;;;;;;;;;;5018300;28;20044;-71
2023/08/14 01:00:20;;;;;;;7.30;2.00;;;;;;;;;;4998160;28;20550;-71
2023/08/14 01:02:47;;;;;;;5.97;1.90;;;;;;;;;;5004047;28;20473;-71
2023/08/14 01:05:13;;;;;;;7.03;1.80;;;;;;;;;;4997102;28;20033;-74
2023/08/14 01:07:40;;;;;;;5.13;1.75;;;;;;;;;;5019149;28;20193;-71
2023/08/14 01:10:10;;;;;;;6.35;1.70;;;;;;;;;;5000658;28;20263;-71
2023/08/14 01:12:38;;;;;;;7.07;1.75;;;;;;;;;;5020160;28;20468;-74
2023/08/14 01:15:07;;;;;;;5.38;1.70;;;;;;;;;;5012264;28;20236;-72
2023/08/14 01:17:35;;;;;;;6.68;1.92;;;;;;;;;;5018438;28;20494;-71
2023/08/14 01:20:02;;;;;;;4.90;1.55;;;;;;;;;;5016342;28;20017;-73
2023/08/14 01:22:47;;;;;;;4.88;1.67;;;;;;;;;;5016801;28;20030;-73
2023/08/14 01:25:22;;;;;;;8.88;2.00;;;;;;;;;;5015811;28;20132;-73
2023/08/14 01:27:49;;;;;;;5.03;1.67;;;;;;;;;;5004284;28;20045;-73
2023/08/14 01:30:15;;;;;;;6.15;1.80;;;;;;;;;;5020014;28;20052;-73
2023/08/14 01:32:42;;;;;;;6.88;1.73;;;;;;;;;;5021323;28;20040;-73
2023/08/14 01:35:08;;;;;;;6.97;1.70;;;;;;;;;;5018292;28;20056;-73
2023/08/14 01:37:37;;;;;;;4.88;1.65;;;;;;;;;;5014535;28;20756;-72
2023/08/14 01:40:08;;;;;;;5.70;1.70;;;;;;;;;;5018216;28;20063;-72
2023/08/14 01:42:36;;;;;;;6.63;1.92;;;;;;;;;;5021320;28;20069;-71
2023/08/14 01:45:06;;;;;;;7.88;1.60;;;;;;;;;;5017870;28;20033;-71
2023/08/14 01:47:33;;;;;;;4.63;1.50;;;;;;;;;;5019674;28;20060;-71
2023/08/14 01:50:00;;;;;;;5.63;1.70;;;;;;;;;;5019499;28;20041;-71
2023/08/14 01:52:26;;;;;;;5.47;1.88;;;;;;;;;;5020376;28;20063;-71
2023/08/14 01:54:52;;;;;;;6.05;1.88;;;;;;;;;;5020040;28;20044;-72
2023/08/14 01:57:19;;;;;;;6.53;1.90;;;;;;;;;;4999073;28;20017;-71
2023/08/14 01:59:48;;;;;;;5.00;1.58;;;;;;;;;;5023118;28;20346;-72
2023/08/14 02:02:14;;;;;;;5.95;1.75;;;;;;;;;;5017322;28;20961;-71
2023/08/14 02:04:41;;;;;;;6.63;2.13;;;;;;;;;;5001442;28;20163;-71
2023/08/14 02:07:07;;;;;;;5.78;1.80;;;;;;;;;;5012454;28;20100;-71
2023/08/14 02:09:34;;;;;;;6.35;1.73;;;;;;;;;;5003573;28;20021;-71
2023/08/14 02:12:00;;;;;;;7.22;1.70;;;;;;;;;;5004825;28;20478;-71
2023/08/14 02:14:26;;;;;;;6.53;1.65;;;;;;;;;;5017526;28;20033;-71
2023/08/14 02:16:52;;;;;;;6.93;1.85;;;;;;;;;;5019661;28;20021;-71
2023/08/14 02:19:18;;;;;;;6.30;1.70;;;;;;;;;;5013634;28;20173;-72
2023/08/14 02:21:45;;;;;;;7.28;2.13;;;;;;;;;;5000870;28;20025;-73
2023/08/14 02:24:11;;;;;;;5.60;1.90;;;;;;;;;;5020796;28;20029;-73
2023/08/14 02:26:37;;;;;;;4.78;1.50;;;;;;;;;;5002653;28;20036;-72
2023/08/14 02:29:03;;;;;;;5.93;1.70;;;;;;;;;;5014899;28;20357;-71
2023/08/14 02:31:30;;;;;;;6.72;1.90;;;;;;;;;;5005160;28;20025;-71
2023/08/14 02:34:00;;;;;;;5.72;1.80;;;;;;;;;;5021325;28;20067;-72
2023/08/14 02:36:26;;;;;;;6.30;1.70;;;;;;;;;;5021300;28;20110;-71
2023/08/14 02:38:53;;;;;;;6.80;1.98;;;;;;;;;;5018742;28;20025;-71
2023/08/14 02:41:20;;;;;;;6.40;1.80;;;;;;;;;;5002658;28;20470;-71
2023/08/14 02:43:46;;;;;;;7.80;1.65;;;;;;;;;;5022901;28;20033;-72
2023/08/14 02:46:12;;;;;;;5.05;1.80;;;;;;;;;;5019549;28;20331;-74
2023/08/14 02:48:40;;;;;;;5.97;1.80;;;;;;;;;;5020107;28;20063;-73
2023/08/14 02:51:06;;;;;;;7.78;1.80;;;;;;;;;;5018412;28;20605;-73
2023/08/14 02:53:32;;;;;;;5.85;1.70;;;;;;;;;;5016997;28;20361;-74
2023/08/14 02:55:58;;;;;;;5.53;1.95;;;;;;;;;;5018653;28;20035;-73
2023/08/14 02:58:24;;;;;;;6.70;2.00;;;;;;;;;;5003791;28;20449;-73
2023/08/14 03:00:50;;;;;;;6.53;2.00;;;;;;;;;;5023637;28;20091;-72
2023/08/14 03:03:16;;;;;;;6.35;1.77;;;;;;;;;;5018570;28;20487;-73
2023/08/14 03:05:44;;;;;;;4.38;1.50;;;;;;;;;;5017780;28;20044;-73
2023/08/14 03:08:10;;;;;;;5.68;1.80;;;;;;;;;;5018091;28;20029;-73
2023/08/14 03:10:37;;;;;;;5.57;1.70;;;;;;;;;;5001365;28;20361;-71
2023/08/14 03:13:03;;;;;;;5.53;1.70;;;;;;;;;;5017890;28;20064;-71
2023/08/14 03:15:29;;;;;;;6.20;1.50;;;;;;;;;;5017046;28;20548;-71
2023/08/14 03:17:55;;;;;;;5.22;1.73;;;;;;;;;;5003635;28;20859;-72
2023/08/14 03:20:21;;;;;;;5.30;1.45;;;;;;;;;;5020170;28;20029;-72
2023/08/14 03:22:47;;;;;;;4.90;1.58;;;;;;;;;;5020836;28;20110;-72
2023/08/14 03:25:14;;;;;;;5.07;1.70;;;;;;;;;;4997121;28;20510;-72
2023/08/14 03:27:40;;;;;;;7.25;1.83;;;;;;;;;;5016616;28;20032;-72
2023/08/14 03:30:06;;;;;;;6.50;1.60;;;;;;;;;;4999107;28;20033;-72
2023/08/14 03:32:32;;;;;;;7.20;1.77;;;;;;;;;;5018007;28;20213;-72
2023/08/14 03:34:58;;;;;;;6.55;1.58;;;;;;;;;;4998242;28;20056;-71
2023/08/14 03:37:25;;;;;;;6.88;1.77;;;;;;;;;;5002902;28;20497;-72
2023/08/14 03:39:51;;;;;;;6.78;1.77;;;;;;;;;;5020427;28;20032;-72
2023/08/14 03:42:17;;;;;;;5.45;1.77;;;;;;;;;;4995567;28;21013;-72
2023/08/14 03:44:43;;;;;;;5.63;1.70;;;;;;;;;;5017981;28;20128;-73
2023/08/14 03:47:09;;;;;;;6.93;1.75;;;;;;;;;;5018320;28;20037;-73
2023/08/14 03:49:35;;;;;;;6.95;2.13;;;;;;;;;;5017263;28;20726;-73
2023/08/14 03:52:01;;;;;;;7.72;1.90;;;;;;;;;;5002148;28;20495;-73
2023/08/14 03:54:27;;;;;;;5.88;1.73;;;;;;;;;;5013375;28;20513;-71
2023/08/14 03:56:54;;;;;;;5.05;1.73;;;;;;;;;;5002763;28;20037;-73
2023/08/14 03:59:20;;;;;;;5.72;1.67;;;;;;;;;;5015276;28;20116;-71
2023/08/14 04:01:46;;;;;;;7.03;1.80;;;;;;;;;;5020389;28;20463;-71
2023/08/14 04:04:12;;;;;;;6.03;1.98;;;;;;;;;;5015298;28;20030;-70
2023/08/14 04:06:38;;;;;;;5.75;1.85;;;;;;;;;;5000224;28;20436;-71
2023/08/14 04:09:05;;;;;;;6.43;1.70;;;;;;;;;;4999329;28;20040;-73
2023/08/14 04:11:32;;;;;;;6.63;1.67;;;;;;;;;;5018921;28;20479;-73
2023/08/14 04:13:59;;;;;;;6.70;1.70;;;;;;;;;;5017163;28;20455;-72
2023/08/14 04:16:41;;;;;;;10.10;1.90;;;;;;;;;;5000002;28;20047;-72
2023/08/14 04:19:07;;;;;;;6.78;1.90;;;;;;;;;;4997987;28;20403;-71
2023/08/14 04:21:33;;;;;;;5.43;1.70;;;;;;;;;;5018321;28;20103;-73
2023/08/14 04:23:59;;;;;;;5.82;1.60;;;;;;;;;;4997419;28;20029;-72
2023/08/14 04:26:26;;;;;;;5.65;1.58;;;;;;;;;;5018217;28;20037;-73
2023/08/14 04:28:52;;;;;;;6.38;1.80;;;;;;;;;;5003521;28;20086;-71
2023/08/14 04:31:18;;;;;;;4.95;1.70;;;;;;;;;;5016364;28;20159;-71
2023/08/14 04:33:44;;;;;;;5.90;1.65;;;;;;;;;;5019965;28;20033;-71
2023/08/14 04:36:10;;;;;;;4.65;1.73;;;;;;;;;;5015105;28;20064;-72
2023/08/14 04:38:36;;;;;;;6.43;1.83;;;;;;;;;;5020086;28;20033;-72
2023/08/14 04:41:02;;;;;;;6.63;1.67;;;;;;;;;;5018436;28;20116;-71
2023/08/14 04:43:31;;;;;;;9.65;2.10;;;;;;;;;;5001104;28;20145;-71
2023/08/14 04:45:58;;;;;;;5.88;1.63;;;;;;;;;;5016043;28;20657;-71
2023/08/14 04:48:24;;;;;;;5.85;1.70;;;;;;;;;;5019430;28;20043;-71
2023/08/14 04:50:50;;;;;;;7.68;1.80;;;;;;;;;;5016885;28;20029;-71
2023/08/14 04:53:16;;;;;;;8.38;2.05;;;;;;;;;;4999993;28;20040;-71
2023/08/14 04:55:42;;;;;;;12.63;2.20;;;;;;;;;;5018406;28;20224;-71
2023/08/14 04:58:08;;;;;;;6.63;1.80;;;;;;;;;;5014897;28;20325;-71
2023/08/14 05:00:35;;;;;;;7.93;2.20;;;;;;;;;;5016377;28;20582;-71
2023/08/14 05:03:01;;;;;;;6.65;1.92;;;;;;;;;;5013112;28;20444;-71
2023/08/14 05:05:27;;;;;;;8.48;2.10;;;;;;;;;;5019509;28;20114;-71
2023/08/14 05:07:53;;;;;;;6.95;1.73;;;;;;;;;;5003613;28;20241;-71
2023/08/14 05:10:19;;;;;;;9.18;1.70;;;;;;;;;;5016770;28;20048;-71
2023/08/14 05:12:45;;;;;;;7.68;1.80;;;;;;;;;;5020652;28;20031;-72
2023/08/14 05:15:11;;;;;;;6.28;1.50;;;;;;;;;;5015693;28;20051;-71
2023/08/14 05:17:37;;;;;;;8.20;1.90;;;;;;;;;;5019842;28;20017;-71
2023/08/14 05:20:04;;;;;;;5.50;1.80;;;;;;;;;;5015274;28;20029;-71
2023/08/14 05:22:30;;;;;;;6.38;1.77;;;;;;;;;;5004255;28;20121;-71
2023/08/14 05:24:56;;;;;;;8.38;1.88;;;;;;;;;;5004020;28;20025;-71
2023/08/14 05:27:22;;;;;;;8.50;1.95;;;;;;;;;;5024843;28;20071;-71
2023/08/14 05:29:49;;;;;;;8.40;1.70;;;;;;;;;;5021916;28;20477;-72
2023/08/14 05:32:15;;;;;;;8.55;1.70;;;;;;;;;;5022008;28;20068;-71
2023/08/14 05:34:41;;;;;;;5.97;1.70;;;;;;;;;;5004139;28;20108;-73
2023/08/14 05:37:07;;;;;;;6.53;1.75;;;;;;;;;;5016578;28;20247;-70
2023/08/14 05:39:33;;;;;;;4.68;1.40;;;;;;;;;;5024182;28;20112;-73
2023/08/14 05:41:59;;;;;;;6.75;2.00;;;;;;;;;;5019652;28;20059;-72
2023/08/14 05:44:25;;;;;;;8.88;2.00;;;;;;;;;;5023211;28;20036;-71
2023/08/14 05:46:52;;;;;;;6.43;1.90;;;;;;;;;;5019829;28;20040;-73
2023/08/14 05:49:18;;;;;;;7.10;1.60;;;;;;;;;;5019532;28;20485;-72
2023/08/14 05:51:44;;;;;;;6.05;1.63;;;;;;;;;;5022384;28;20395;-72
2023/08/14 05:54:10;;;;;;;6.80;1.92;;;;;;;;;;5022636;28;20577;-72
2023/08/14 05:56:37;;;;;;;9.82;1.80;;;;;;;;;;5024364;28;20271;-72
2023/08/14 05:59:03;;;;;;;5.93;1.73;;;;;;;;;;5024834;28;20464;-72
2023/08/14 06:01:29;;;;;;;8.80;2.30;;;;;;;;;;5005044;28;20237;-72
2023/08/14 06:03:55;;;;;;;7.35;2.10;;;;;;;;;;5009309;28;20029;-72
2023/08/14 06:06:21;;;;;;;7.03;2.25;;;;;;;;;;5019506;28;20233;-71
2023/08/14 06:08:48;;;;;;;9.70;2.00;;;;;;;;;;5023613;28;20056;-72
2023/08/14 06:11:14;;;;;;;7.18;2.13;;;;;;;;;;5018163;28;20072;-72
2023/08/14 06:13:40;;;;;;;11.20;2.00;;;;;;;;;;5020483;28;20064;-71
2023/08/14 06:16:07;;;;;;;9.23;1.95;;;;;;;;;;5019600;28;20174;-72
2023/08/14 06:18:33;;;;;;;7.72;1.70;;;;;;;;;;5025400;28;20202;-72
2023/08/14 06:20:59;;;;;;;7.93;1.58;;;;;;;;;;5021083;28;20040;-71
2023/08/14 06:23:25;;;;;;;8.00;1.75;;;;;;;;;;5025068;28;20021;-72
2023/08/14 06:25:51;;;;;;;7.45;1.67;;;;;;;;;;5007130;28;20044;-72
2023/08/14 06:28:17;;;;;;;15.02;2.33;;;;;;;;;;5021258;28;20548;-71
2023/08/14 06:30:44;;;;;;;18.20;2.40;;;;;;;;;;5020740;28;20032;-71
2023/08/14 06:33:10;;;;;;;14.85;2.50;;;;;;;;;;5021272;28;20102;-71
2023/08/14 06:35:36;;;;;;;11.88;2.42;;;;;;;;;;5021313;28;20284;-72
2023/08/14 06:38:02;;;;;;;7.00;1.83;;;;;;;;;;4998584;28;20056;-71
2023/08/14 06:40:28;;;;;;;10.07;1.90;;;;;;;;;;5003252;28;20566;-71
2023/08/14 06:42:54;;;;;;;7.10;1.85;;;;;;;;;;5019539;28;20890;-72
2023/08/14 06:45:21;;;;;;;7.05;1.55;;;;;;;;;;5017022;28;20039;-71
2023/08/14 06:47:48;;;;;;;5.97;1.65;;;;;;;;;;5021519;28;20055;-72
2023/08/14 06:50:14;;;;;;;5.82;1.50;;;;;;;;;;5000244;28;20033;-71
2023/08/14 06:52:40;;;;;;;6.35;1.40;;;;;;;;;;5002060;28;20376;-71
2023/08/14 06:55:06;;;;;;;7.20;1.55;;;;;;;;;;5017713;28;20060;-72
2023/08/14 06:57:32;;;;;;;7.10;1.58;;;;;;;;;;5020508;28;20017;-71
2023/08/14 07:00:02;;;;;;;8.93;1.92;;;;;;;;;;4999915;28;20722;-71
2023/08/14 07:02:28;;;;;;;6.05;1.60;;;;;;;;;;5002792;28;20235;-71
2023/08/14 07:04:54;;;;;;;5.22;1.45;;;;;;;;;;5022153;28;20025;-71
2023/08/14 07:07:20;;;;;;;6.68;1.52;;;;;;;;;;5000660;28;20420;-72
2023/08/14 07:09:46;;;;;;;5.45;1.35;;;;;;;;;;5001697;28;20052;-73
2023/08/14 07:12:12;;;;;;;5.38;1.27;;;;;;;;;;5017787;28;20282;-71
2023/08/14 07:14:39;;;;;;;4.70;1.40;;;;;;;;;;5022185;28;20095;-72
2023/08/14 07:17:05;;;;;;;5.00;1.30;;;;;;;;;;4999949;28;20128;-71
2023/08/14 07:19:31;;;;;;;4.22;1.25;;;;;;;;;;5002853;28;20032;-71
2023/08/14 07:21:57;;;;;;;5.43;1.30;;;;;;;;;;5017089;28;20042;-71
2023/08/14 07:24:24;;;;;;;7.93;1.52;;;;;;;;;;5019847;28;20065;-71
2023/08/14 07:26:50;;;;;;;5.50;1.30;;;;;;;;;;5015850;28;20037;-71
2023/08/14 07:29:16;;;;;;;6.65;1.55;;;;;;;;;;5015070;28;20033;-73
2023/08/14 07:31:42;;;;;;;4.95;1.33;;;;;;;;;;5020360;28;20452;-73
2023/08/14 07:34:08;;;;;;;6.50;1.52;;;;;;;;;;5015208;28;20241;-73
2023/08/14 07:36:34;;;;;;;4.13;1.13;;;;;;;;;;5016948;28;20159;-71
2023/08/14 07:39:01;;;;;;;4.88;1.40;;;;;;;;;;5001191;28;20056;-71
2023/08/14 07:41:27;;;;;;;4.88;1.30;;;;;;;;;;4996844;28;20152;-71
2023/08/14 07:43:53;;;;;;;5.82;1.88;;;;;;;;;;4993474;28;20648;-71
2023/08/14 07:46:19;;;;;;;6.57;1.67;;;;;;;;;;5010227;28;20025;-71
2023/08/14 07:48:45;;;;;;;6.63;1.70;;;;;;;;;;5010101;28;20148;-71
2023/08/14 07:51:11;;;;;;;5.70;1.58;;;;;;;;;;5007043;28;20446;-71
2023/08/14 07:53:37;;;;;;;7.07;1.42;;;;;;;;;;5011302;28;20456;-73
2023/08/14 07:56:04;;;;;;;5.93;1.52;;;;;;;;;;5009912;28;20067;-71
2023/08/14 07:58:30;;;;;;;5.28;1.42;;;;;;;;;;5012312;28;20022;-71
2023/08/14 08:00:56;;;;;;;6.07;1.45;;;;;;;;;;4991096;28;21122;-71
2023/08/14 08:03:22;;;;;;;5.95;1.45;;;;;;;;;;5005674;28;20438;-71
2023/08/14 08:05:48;;;;;;;6.95;1.65;;;;;;;;;;5010626;28;20107;-72
2023/08/14 08:08:15;;;;;;;6.40;1.40;;;;;;;;;;5004016;28;20029;-71
2023/08/14 08:10:41;;;;;;;6.47;1.80;;;;;;;;;;5010061;28;20363;-71
2023/08/14 08:13:08;;;;;;;7.07;1.80;;;;;;;;;;4991526;28;20799;-71
2023/08/14 08:15:34;;;;;;;7.07;1.40;;;;;;;;;;5008373;28;20148;-71
2023/08/14 08:18:00;;;;;;;5.82;1.33;;;;;;;;;;5005931;28;20269;-71
2023/08/14 08:20:26;;;;;;;5.50;1.40;;;;;;;;;;4990156;28;20556;-71
2023/08/14 08:22:52;;;;;;;7.47;1.60;;;;;;;;;;5008529;28;20436;-71
2023/08/14 08:25:19;;;;;;;4.60;1.20;;;;;;;;;;5008798;28;20064;-71
2023/08/14 08:27:45;;;;;;;6.00;1.60;;;;;;;;;;5008010;28;20021;-71
2023/08/14 08:30:11;;;;;;;5.65;1.35;;;;;;;;;;5006454;28;20354;-71
2023/08/14 08:32:38;;;;;;;7.10;1.70;;;;;;;;;;5011849;28;20031;-72
2023/08/14 08:35:05;;;;;;;5.40;1.77;;;;;;;;;;5007001;28;20066;-71
2023/08/14 08:37:31;;;;;;;7.68;1.90;;;;;;;;;;5010011;28;20036;-71
2023/08/14 08:39:57;;;;;;;7.57;1.70;;;;;;;;;;5012382;28;20048;-73
2023/08/14 08:42:24;;;;;;;5.53;1.58;;;;;;;;;;4989836;28;20065;-73
2023/08/14 08:44:50;;;;;;;5.72;1.60;;;;;;;;;;5009515;28;20039;-72
2023/08/14 08:47:17;;;;;;;4.80;1.58;;;;;;;;;;5006299;28;20542;-71
2023/08/14 08:49:43;;;;;;;5.80;1.88;;;;;;;;;;5009499;28;20121;-71
2023/08/14 08:52:10;;;;;;;7.03;1.65;;;;;;;;;;5005634;28;20120;-71
2023/08/14 08:54:37;;;;;;;8.93;1.77;;;;;;;;;;5011181;28;20209;-71
2023/08/14 08:57:05;;;;;;;13.00;2.08;;;;;;;;;;5013412;28;20029;-71
2023/08/14 08:59:32;;;;;;;6.35;1.60;;;;;;;;;;5015026;28;20735;-71
2023/08/14 09:01:59;;;;;;;7.72;1.77;;;;;;;;;;5014096;28;22332;-71
2023/08/14 09:04:25;;;;;;;6.78;1.50;;;;;;;;;;5017930;28;20575;-71
2023/08/14 09:06:51;;;;;;;4.90;1.45;;;;;;;;;;5017364;28;20661;-72
2023/08/14 09:09:18;;;;;;;6.82;1.80;;;;;;;;;;5011474;28;21586;-71
2023/08/14 09:11:44;;;;;;;7.18;1.45;;;;;;;;;;5010471;28;20343;-71
2023/08/14 09:14:10;;;;;;;5.40;1.85;;;;;;;;;;5011094;28;20033;-72
2023/08/14 09:16:36;;;;;;;5.75;1.70;;;;;;;;;;5016522;28;20033;-71
2023/08/14 09:19:02;;;;;;;6.38;1.60;;;;;;;;;;5012570;28;20427;-72
2023/08/14 09:21:28;;;;;;;6.47;1.55;;;;;;;;;;5011926;28;20017;-72
2023/08/14 09:23:55;;;;;;;7.57;1.65;;;;;;;;;;5011911;28;20033;-71
2023/08/14 09:26:22;;;;;;;5.20;1.50;;;;;;;;;;5009632;28;20029;-71
2023/08/14 09:28:48;;;;;;;6.80;1.50;;;;;;;;;;5015074;28;20460;-72
2023/08/14 09:31:14;;;;;;;7.07;1.50;;;;;;;;;;5014419;28;20025;-71
2023/08/14 09:33:41;;;;;;;6.25;1.55;;;;;;;;;;4997630;28;20111;-72
2023/08/14 09:36:08;;;;;;;8.07;1.60;;;;;;;;;;4974431;28;20138;-70
2023/08/14 09:38:34;;;;;;;6.80;1.60;;;;;;;;;;4971305;28;20028;-72
2023/08/14 09:41:01;;;;;;;8.73;1.70;;;;;;;;;;4966093;28;20177;-73
2023/08/14 09:43:28;;;;;;;6.10;1.70;;;;;;;;;;4967994;28;20030;-74
2023/08/14 09:45:59;;;;;;;6.18;1.60;;;;;;;;;;4974404;28;20057;-70
2023/08/14 09:48:41;;;;;;;5.38;1.50;;;;;;;;;;4969616;28;20029;-71
2023/08/14 09:51:10;;;;;;;5.60;1.70;;;;;;;;;;4969235;28;20027;-73
2023/08/14 09:53:48;;;;;;;8.60;1.70;;;;;;;;;;4968217;28;20215;-73
2023/08/14 09:56:14;;;;;;;7.13;1.58;;;;;;;;;;4966567;28;20031;-73
2023/08/14 09:58:41;;;;;;;6.50;1.52;;;;;;;;;;4973803;28;20673;-73
2023/08/14 10:01:08;;;;;;;6.43;1.80;;;;;;;;;;4968235;28;20096;-71
2023/08/14 10:03:35;;;;;;;6.30;1.52;;;;;;;;;;4972076;28;20060;-73
2023/08/14 10:06:03;;;;;;;5.18;1.40;;;;;;;;;;4968739;28;20041;-73
2023/08/14 10:08:32;;;;;;;8.15;1.50;;;;;;;;;;4970466;28;20037;-73
2023/08/14 10:10:58;;;;;;;7.53;1.98;;;;;;;;;;4969830;28;20089;-72
2023/08/14 10:13:25;;;;;;;6.47;1.50;;;;;;;;;;4970543;28;20455;-72
2023/08/14 10:15:54;;;;;;;4.53;1.40;;;;;;;;;;4969430;28;20045;-72
2023/08/14 10:18:23;;;;;;;5.40;1.45;;;;;;;;;;4987984;28;20403;-73
2023/08/14 10:20:50;;;;;;;7.47;1.60;;;;;;;;;;4968339;28;20049;-72
2023/08/14 10:23:17;;;;;;;11.20;1.77;;;;;;;;;;4964973;28;20014;-71
2023/08/14 10:25:50;;;;;;;9.55;1.70;;;;;;;;;;4971498;28;20037;-72
2023/08/14 10:28:17;;;;;;;5.47;1.42;;;;;;;;;;4966956;28;20495;-71
2023/08/14 10:30:43;;;;;;;4.88;1.50;;;;;;;;;;4991300;28;20436;-71
2023/08/14 10:33:10;;;;;;;5.50;1.35;;;;;;;;;;4985799;28;20040;-72
2023/08/14 10:35:49;;;;;;;8.90;1.38;;;;;;;;;;4996470;28;20263;-71
2023/08/14 10:38:16;;;;;;;6.22;1.48;;;;;;;;;;4987980;28;20047;-72
2023/08/14 10:40:52;;;;;;;7.30;1.60;;;;;;;;;;5011669;28;20012;-72
2023/08/14 10:43:18;;;;;;;8.40;1.48;;;;;;;;;;5009196;28;20431;-71
2023/08/14 10:45:44;;;;;;;5.40;1.40;;;;;;;;;;5009221;28;20078;-72
2023/08/14 10:48:11;;;;;;;4.57;1.40;;;;;;;;;;5007016;28;20106;-72
2023/08/14 10:50:37;;;;;;;5.20;1.33;;;;;;;;;;5011111;28;20028;-72
2023/08/14 10:53:04;;;;;;;6.30;1.40;;;;;;;;;;5008765;28;20136;-72
2023/08/14 10:55:38;;;;;;;8.55;1.60;;;;;;;;;;5010601;28;20036;-72
2023/08/14 10:58:40;;;;;;;4.65;1.40;;;;;;;;;;5009759;28;20039;-72
2023/08/14 11:01:07;;;;;;;6.38;1.45;;;;;;;;;;4918909;28;20031;-72
2023/08/14 11:03:34;;;;;;;5.28;1.50;;;;;;;;;;4922799;28;20465;-72
2023/08/14 11:06:01;;;;;;;4.95;1.40;;;;;;;;;;4918565;28;20626;-72
2023/08/14 11:08:30;;;;;;;5.45;1.45;;;;;;;;;;4921226;28;20046;-72
2023/08/14 11:10:58;;;;;;;4.03;1.27;;;;;;;;;;4922588;28;20031;-72
2023/08/14 11:13:28;;;;;;;7.05;1.50;;;;;;;;;;4904282;28;20600;-72
2023/08/14 11:15:54;;;;;;;5.78;1.23;;;;;;;;;;4905268;28;20546;-71
2023/08/14 11:18:21;;;;;;;5.55;1.30;;;;;;;;;;4918014;28;20039;-72
2023/08/14 11:20:47;;;;;;;4.85;1.30;;;;;;;;;;4909108;28;20125;-72
2023/08/14 11:23:13;;;;;;;5.15;1.35;;;;;;;;;;4920544;28;20068;-72
2023/08/14 11:25:39;;;;;;;5.32;1.50;;;;;;;;;;4904234;28;20063;-73
2023/08/14 11:28:05;;;;;;;6.22;1.38;;;;;;;;;;4920734;28;20045;-73
2023/08/14 11:30:33;;;;;;;7.20;1.48;;;;;;;;;;4919025;28;20078;-71
2023/08/14 11:32:59;;;;;;;6.15;1.40;;;;;;;;;;4920525;28;20493;-73
2023/08/14 11:35:29;;;;;;;5.45;1.50;;;;;;;;;;4961342;28;20099;-72
2023/08/14 11:37:55;;;;;;;5.65;1.40;;;;;;;;;;5014070;28;20822;-73
2023/08/14 11:40:21;;;;;;;5.43;1.52;;;;;;;;;;5011569;28;20021;-71
2023/08/14 11:42:48;;;;;;;6.95;1.60;;;;;;;;;;5010722;28;20574;-73
2023/08/14 11:45:14;;;;;;;7.38;1.65;;;;;;;;;;5012799;28;20032;-73
2023/08/14 11:47:47;;;;;;;5.68;1.50;;;;;;;;;;5023043;28;20079;-73
2023/08/14 11:50:13;;;;;;;5.45;1.35;;;;;;;;;;5018721;28;20110;-72
2023/08/14 11:52:40;;;;;;;7.07;1.50;;;;;;;;;;5003892;28;20137;-72
2023/08/14 11:55:07;;;;;;;7.95;1.65;;;;;;;;;;5013555;28;20028;-72
2023/08/14 11:57:33;;;;;;;5.30;1.50;;;;;;;;;;5019029;28;20116;-73
2023/08/14 12:00:00;;;;;;;7.43;1.50;;;;;;;;;;5015778;28;20472;-71
2023/08/14 12:02:27;;;;;;;6.00;1.50;;;;;;;;;;5003571;28;20021;-72
2023/08/14 12:04:58;;;;;;;7.53;1.70;;;;;;;;;;4999899;28;20453;-72
2023/08/14 12:07:25;;;;;;;5.55;1.50;;;;;;;;;;5020034;28;20087;-71
2023/08/14 12:09:53;;;;;;;4.78;1.40;;;;;;;;;;5016925;28;20407;-72
2023/08/14 12:12:20;;;;;;;6.05;1.65;;;;;;;;;;5019136;28;20428;-72
2023/08/14 12:14:47;;;;;;;5.30;1.30;;;;;;;;;;5022153;28;20028;-72
2023/08/14 12:17:15;;;;;;;5.55;1.48;;;;;;;;;;5015787;28;20044;-71
2023/08/14 12:19:42;;;;;;;6.70;1.55;;;;;;;;;;5024945;28;20064;-73
2023/08/14 12:22:09;;;;;;;7.93;1.80;;;;;;;;;;5017413;28;20107;-72
2023/08/14 12:24:42;;;;;;;6.25;1.40;;;;;;;;;;5002148;28;20475;-71
2023/08/14 12:27:34;;;;;;;6.00;1.65;;;;;;;;;;5017387;28;20037;-72
2023/08/14 12:30:01;;;;;;;5.85;1.60;;;;;;;;;;5015297;28;20258;-73
2023/08/14 12:32:27;;;;;;;4.43;1.25;;;;;;;;;;5028912;28;20036;-72
2023/08/14 12:34:53;;;;;;;4.30;1.20;;;;;;;;;;5025600;28;20554;-72
2023/08/14 12:37:21;;;;;;;6.13;1.40;;;;;;;;;;5026731;28;20032;-72
2023/08/14 12:39:55;;;;;;;7.00;1.40;;;;;;;;;;5005110;28;20022;-74
2023/08/14 12:42:21;;;;;;;9.93;1.58;;;;;;;;;;5023067;28;20029;-73
2023/08/14 12:44:52;;;;;;;10.80;1.58;;;;;;;;;;5009694;28;20029;-73
2023/08/14 12:47:18;;;;;;;7.28;1.40;;;;;;;;;;5024356;28;21218;-75
2023/08/14 12:49:44;;;;;;;5.07;1.45;;;;;;;;;;5010692;28;20749;-74
2023/08/14 12:52:10;;;;;;;5.35;1.45;;;;;;;;;;5011814;28;20037;-73
2023/08/14 12:54:36;;;;;;;4.97;1.23;;;;;;;;;;5007141;28;20395;-72
2023/08/14 12:57:02;;;;;;;6.32;1.60;;;;;;;;;;5023024;28;20333;-72
2023/08/14 12:59:28;;;;;;;4.32;1.40;;;;;;;;;;5025369;28;20049;-73
2023/08/14 13:01:54;;;;;;;6.25;1.55;;;;;;;;;;5027973;28;20033;-73
2023/08/14 13:04:21;;;;;;;6.78;1.42;;;;;;;;;;5029802;28;20042;-74
2023/08/14 13:06:47;;;;;;;6.68;1.40;;;;;;;;;;5030709;28;20060;-74
2023/08/14 13:09:13;;;;;;;5.30;1.42;;;;;;;;;;5005097;28;20127;-73
2023/08/14 13:11:40;;;;;;;5.45;1.42;;;;;;;;;;5012629;28;20436;-73
2023/08/14 13:14:06;;;;;;;6.60;1.40;;;;;;;;;;5025722;28;20027;-71
2023/08/14 13:16:32;;;;;;;5.43;1.30;;;;;;;;;;5028406;28;20039;-73
2023/08/14 13:18:59;;;;;;;6.63;1.60;;;;;;;;;;5006684;28;20029;-73
2023/08/14 13:21:25;;;;;;;7.82;1.38;;;;;;;;;;5027830;28;20531;-73
2023/08/14 13:23:51;;;;;;;6.40;1.45;;;;;;;;;;5023525;28;20028;-74
2023/08/14 13:26:17;;;;;;;5.00;1.40;;;;;;;;;;5027940;28;20032;-73
2023/08/14 13:28:43;;;;;;;5.97;1.58;;;;;;;;;;5025808;28;20021;-73
2023/08/14 13:31:10;;;;;;;5.55;1.35;;;;;;;;;;5026598;28;20028;-74
2023/08/14 13:33:36;;;;;;;6.85;1.60;;;;;;;;;;5012524;28;20724;-73
2023/08/14 13:36:05;;;;;;;6.47;1.40;;;;;;;;;;5014600;28;20053;-75
2023/08/14 13:38:32;;;;;;;6.88;1.45;;;;;;;;;;5037380;28;20612;-74
2023/08/14 13:41:01;;;;;;;4.88;1.33;;;;;;;;;;5032600;28;20084;-74
2023/08/14 13:43:27;;;;;;;6.13;1.50;;;;;;;;;;5033273;28;20032;-74
2023/08/14 13:45:53;;;;;;;7.30;1.48;;;;;;;;;;5018664;28;20369;-74
2023/08/14 13:48:20;;;;;;;4.95;1.40;;;;;;;;;;5016362;28;20032;-74
2023/08/14 13:50:46;;;;;;;6.93;1.50;;;;;;;;;;5043523;28;20048;-74
2023/08/14 13:53:15;;;;;;;4.95;1.30;;;;;;;;;;5019410;28;20037;-73
2023/08/14 13:55:43;;;;;;;5.97;1.50;;;;;;;;;;5034024;28;20037;-74
2023/08/14 13:58:09;;;;;;;5.45;1.40;;;;;;;;;;5013270;28;20025;-74
2023/08/14 14:00:36;;;;;;;6.40;1.60;;;;;;;;;;5013616;28;20159;-74
2023/08/14 14:03:02;;;;;;;7.85;1.73;;;;;;;;;;5032442;28;20102;-74
2023/08/14 14:05:29;;;;;;;6.85;1.70;;;;;;;;;;5027987;28;20051;-73
2023/08/14 14:07:55;;;;;;;8.32;1.70;;;;;;;;;;5024412;28;20038;-73
2023/08/14 14:10:21;;;;;;;6.80;1.65;;;;;;;;;;5024209;28;20033;-72
2023/08/14 14:12:47;;;;;;;5.70;1.40;;;;;;;;;;5004784;28;20019;-73
2023/08/14 14:15:13;;;;;;;5.43;1.42;;;;;;;;;;5019642;28;20025;-72
2023/08/14 14:17:40;;;;;;;5.78;1.50;;;;;;;;;;5007887;28;20033;-73
2023/08/14 14:20:09;;;;;;;7.03;1.60;;;;;;;;;;5006116;28;20080;-73
2023/08/14 14:22:36;;;;;;;5.07;1.45;;;;;;;;;;5024803;28;20064;-73
2023/08/14 14:25:02;;;;;;;5.20;1.30;;;;;;;;;;5007217;28;20040;-73
2023/08/14 14:27:28;;;;;;;6.63;1.48;;;;;;;;;;5027766;28;20034;-73
2023/08/14 14:29:54;;;;;;;5.85;1.75;;;;;;;;;;5025059;28;21033;-72
2023/08/14 14:32:21;;;;;;;8.68;1.63;;;;;;;;;;5007357;28;20028;-74
2023/08/14 14:34:47;;;;;;;4.70;1.40;;;;;;;;;;5024248;28;20037;-72
2023/08/14 14:37:13;;;;;;;6.25;1.42;;;;;;;;;;5021801;28;20060;-72
2023/08/14 14:39:40;;;;;;;6.90;1.50;;;;;;;;;;5020716;28;20487;-73
2023/08/14 14:42:06;;;;;;;4.72;1.48;;;;;;;;;;5020821;28;20025;-73